VISIB

Not for real navigation. The accuracy of this data is not assured See disclaimer for more information



ICAO NAME COUNTRY WIND Kt GUST Kt VIS m TEMP/DEW C BARO METAR
UBBQ 1 0 50 0/-1 29.94 UBBQ 240413Z 17001KT 0050 R34/0075 FZFG VV001 M00/M01 Q1014 R34/////// RMK MT OBSC
OPMT Multan Pakistan 4 0 100 9/9 30.00 OPMT 240452Z 36004KT 0100 FOG VVIII 09/09 Q1016 TEMPO 0150
OING Gorgan Iran 20 0 100 6/6 30.00 OING 240430Z 24020KT 0100 R13/0275N FG VV001 06/06 Q1016
DAOL Oran/Tafaraoui Algeria 2 0 100 6/6 30.33 DAOL 240400Z 25002KT 0100 FG SCT010 06/06 Q1027
UBEE 0 0 100 4/3 30.00 UBEE 240500Z 00000KT 0100 R30/0100 VV002 04/03 Q1016 R30/CLRD// NOSIG

Show more